createdAt,value
2023-01-07T00:01:41.518Z,73.83
2023-01-07T00:04:13.738Z,73.86
2023-01-07T00:06:43.754Z,73.82
2023-01-07T00:09:15.852Z,73.95
2023-01-07T00:11:44.245Z,74.03
2023-01-07T00:14:14.072Z,74.09
2023-01-07T00:16:42.822Z,74.08
2023-01-07T00:19:14.630Z,74.12
2023-01-07T00:21:42.913Z,74.21
2023-01-07T00:24:12.042Z,74.33
2023-01-07T00:26:40.893Z,74.44
2023-01-07T00:29:09.103Z,74.52
2023-01-07T00:31:39.810Z,74.50
2023-01-07T00:34:08.846Z,74.62
2023-01-07T00:36:43.285Z,74.66
2023-01-07T00:39:19.376Z,74.56
2023-01-07T00:42:06.913Z,74.57
2023-01-07T00:44:37.186Z,74.47
2023-01-07T00:47:04.886Z,74.15
2023-01-07T00:49:32.689Z,73.75
2023-01-07T00:52:00.332Z,73.55
2023-01-07T00:54:28.182Z,73.75
2023-01-07T00:56:55.923Z,74.12
2023-01-07T00:59:23.582Z,74.24
2023-01-07T01:01:51.984Z,74.29
2023-01-07T01:04:19.558Z,74.22
2023-01-07T01:06:47.253Z,74.17
2023-01-07T01:09:14.965Z,74.14
2023-01-07T01:11:42.491Z,74.27
2023-01-07T01:14:11.356Z,74.44
2023-01-07T01:16:39.202Z,74.51
2023-01-07T01:19:07.327Z,74.42
2023-01-07T01:21:34.832Z,74.38
2023-01-07T01:24:02.307Z,74.39
2023-01-07T01:26:30.444Z,74.36
2023-01-07T01:28:58.114Z,74.31
2023-01-07T01:31:26.732Z,74.19
2023-01-07T01:33:56.348Z,74.08
2023-01-07T01:36:24.449Z,74.09
2023-01-07T01:38:52.931Z,74.08
2023-01-07T01:41:21.333Z,74.00
2023-01-07T01:43:51.413Z,74.02
2023-01-07T01:46:27.095Z,74.00
2023-01-07T01:49:02.762Z,73.93
2023-01-07T01:51:35.626Z,73.92
2023-01-07T01:54:07.610Z,73.83
2023-01-07T01:56:39.497Z,73.84
2023-01-07T01:59:12.980Z,73.93
2023-01-07T02:01:41.306Z,74.01
2023-01-07T02:04:16.300Z,74.10
2023-01-07T02:06:51.955Z,74.15
2023-01-07T02:09:27.991Z,74.17
2023-01-07T02:12:34.551Z,74.27
2023-01-07T02:15:40.455Z,74.29
2023-01-07T02:19:02.681Z,74.35
2023-01-07T02:22:07.276Z,74.28
2023-01-07T02:25:11.692Z,74.43
2023-01-07T02:27:59.487Z,74.50
2023-01-07T02:30:47.089Z,74.46
2023-01-07T02:33:39.704Z,74.54
2023-01-07T02:36:23.856Z,74.56
2023-01-07T02:39:09.278Z,74.60
2023-01-07T02:41:54.107Z,74.72
2023-01-07T02:44:42.992Z,74.56
2023-01-07T02:47:45.174Z,74.39
2023-01-07T02:50:13.545Z,74.46
2023-01-07T02:52:41.203Z,74.79
2023-01-07T02:55:14.455Z,74.81
2023-01-07T02:58:05.386Z,74.62
2023-01-07T03:00:50.937Z,74.22
2023-01-07T03:04:04.694Z,73.98
2023-01-07T03:07:12.860Z,73.94
2023-01-07T03:10:07.282Z,73.96
2023-01-07T03:12:41.199Z,74.09
2023-01-07T03:15:20.138Z,74.05
2023-01-07T03:18:08.349Z,73.93
2023-01-07T03:20:38.955Z,73.96
2023-01-07T03:23:10.320Z,73.92
2023-01-07T03:25:45.118Z,74.01
2023-01-07T03:28:16.947Z,74.05
2023-01-07T03:30:47.679Z,74.11
2023-01-07T03:33:29.586Z,74.11
2023-01-07T03:36:00.141Z,74.30
2023-01-07T03:38:29.664Z,74.37
2023-01-07T03:40:59.264Z,74.43
2023-01-07T03:43:26.948Z,74.43
2023-01-07T03:45:57.765Z,74.45
2023-01-07T03:48:26.048Z,74.49
2023-01-07T03:50:53.766Z,74.53
2023-01-07T03:53:21.368Z,74.65
2023-01-07T03:55:52.489Z,74.64
2023-01-07T03:58:20.100Z,74.68
2023-01-07T04:00:47.723Z,74.75
2023-01-07T04:03:17.071Z,74.81
2023-01-07T04:05:46.525Z,74.80
2023-01-07T04:08:14.147Z,74.88
2023-01-07T04:10:43.322Z,74.81
2023-01-07T04:13:12.022Z,74.86
2023-01-07T04:15:42.113Z,74.90
2023-01-07T04:18:13.335Z,74.84
2023-01-07T04:20:55.940Z,74.92
2023-01-07T04:23:38.003Z,74.98
2023-01-07T04:26:07.960Z,74.99
2023-01-07T04:28:41.326Z,74.96
2023-01-07T04:31:16.651Z,75.04
2023-01-07T04:33:55.301Z,74.91
2023-01-07T04:36:35.522Z,74.90
2023-01-07T04:39:11.365Z,75.02
2023-01-07T04:41:50.355Z,74.81
2023-01-07T04:44:21.912Z,74.78
2023-01-07T04:47:02.069Z,74.56
2023-01-07T04:49:41.330Z,74.52
2023-01-07T04:52:18.096Z,74.44
2023-01-07T04:54:53.297Z,74.07
2023-01-07T04:57:31.306Z,73.72
2023-01-07T05:00:06.692Z,73.64
2023-01-07T05:02:41.745Z,73.53
2023-01-07T05:05:10.931Z,73.49
2023-01-07T05:07:39.376Z,73.51
2023-01-07T05:10:08.018Z,73.56
2023-01-07T05:12:37.250Z,73.63
2023-01-07T05:15:07.048Z,73.67
2023-01-07T05:17:35.158Z,73.70
2023-01-07T05:20:06.073Z,73.74
2023-01-07T05:22:34.911Z,73.78
2023-01-07T05:25:03.811Z,73.74
2023-01-07T05:27:32.246Z,73.78
2023-01-07T05:30:00.280Z,73.77
2023-01-07T05:32:28.040Z,73.84
2023-01-07T05:34:57.224Z,73.86
2023-01-07T05:37:25.660Z,73.92
2023-01-07T05:39:53.640Z,73.81
2023-01-07T05:42:21.432Z,73.85
2023-01-07T05:44:50.167Z,73.79
2023-01-07T05:47:17.934Z,73.71
2023-01-07T05:49:45.359Z,73.77
2023-01-07T05:52:13.073Z,73.70
2023-01-07T05:54:41.076Z,73.70
2023-01-07T05:57:08.765Z,73.69
2023-01-07T05:59:36.591Z,73.65
2023-01-07T06:02:04.403Z,73.73
2023-01-07T06:04:33.652Z,73.68
2023-01-07T06:07:01.347Z,73.71
2023-01-07T06:09:30.766Z,73.68
2023-01-07T06:11:58.566Z,73.66
2023-01-07T06:14:26.276Z,73.59
2023-01-07T06:16:53.891Z,73.59
2023-01-07T06:19:22.458Z,73.54
2023-01-07T06:21:50.147Z,73.62
2023-01-07T06:24:17.900Z,73.59
2023-01-07T06:26:45.440Z,73.54
2023-01-07T06:29:13.385Z,73.52
2023-01-07T06:31:41.285Z,73.67
2023-01-07T06:34:08.820Z,73.84
2023-01-07T06:36:36.638Z,73.83
2023-01-07T06:39:04.697Z,73.87
2023-01-07T06:41:32.503Z,73.73
2023-01-07T06:44:00.156Z,73.47
2023-01-07T06:46:28.089Z,73.36
2023-01-07T06:48:55.907Z,73.25
2023-01-07T06:51:23.547Z,73.27
2023-01-07T06:53:51.162Z,73.15
2023-01-07T06:56:18.945Z,73.07
2023-01-07T06:58:46.404Z,73.06
2023-01-07T07:01:14.233Z,73.01
2023-01-07T07:03:41.966Z,73.15
2023-01-07T07:06:09.470Z,73.33
2023-01-07T07:08:37.347Z,73.48
2023-01-07T07:11:05.097Z,73.58
2023-01-07T07:13:32.574Z,73.70
2023-01-07T07:16:00.384Z,73.81
2023-01-07T07:18:28.041Z,73.86
2023-01-07T07:20:57.911Z,73.95
2023-01-07T07:23:25.925Z,74.06
2023-01-07T07:25:53.450Z,74.17
2023-01-07T07:28:21.018Z,74.12
2023-01-07T07:30:48.590Z,74.25
2023-01-07T07:33:18.100Z,74.27
2023-01-07T07:35:47.057Z,74.38
2023-01-07T07:38:17.137Z,74.47
2023-01-07T07:40:45.762Z,74.58
2023-01-07T07:43:14.927Z,74.68
2023-01-07T07:45:43.242Z,74.71
2023-01-07T07:48:14.216Z,74.79
2023-01-07T07:50:42.709Z,74.91
2023-01-07T07:53:10.979Z,74.99
2023-01-07T07:55:39.451Z,75.07
2023-01-07T07:58:07.239Z,75.20
2023-01-07T08:00:35.269Z,75.30
2023-01-07T08:03:05.497Z,75.35
2023-01-07T08:05:33.024Z,75.45
2023-01-07T08:08:00.774Z,75.53
2023-01-07T08:10:29.406Z,75.56
2023-01-07T08:12:57.306Z,75.58
2023-01-07T08:15:25.114Z,75.73
2023-01-07T08:18:01.492Z,75.71
2023-01-07T08:20:29.172Z,75.69
2023-01-07T08:23:01.819Z,75.74
2023-01-07T08:25:33.245Z,75.65
2023-01-07T08:28:01.703Z,75.54
2023-01-07T08:30:30.177Z,75.39
2023-01-07T08:32:58.524Z,75.39
2023-01-07T08:35:26.545Z,75.32
2023-01-07T08:38:07.880Z,75.14
2023-01-07T08:40:36.903Z,75.07
2023-01-07T08:43:07.462Z,74.97
2023-01-07T08:45:35.343Z,74.94
2023-01-07T08:48:03.530Z,74.87
2023-01-07T08:50:33.349Z,74.89
2023-01-07T08:53:01.452Z,74.96
2023-01-07T08:55:28.971Z,75.11
2023-01-07T08:57:57.152Z,75.01
2023-01-07T09:00:25.631Z,75.10
2023-01-07T09:02:53.235Z,75.16
2023-01-07T09:05:21.671Z,75.15
2023-01-07T09:07:53.994Z,75.26
2023-01-07T09:10:22.136Z,75.43
2023-01-07T09:12:49.989Z,75.58
2023-01-07T09:15:20.510Z,75.72
2023-01-07T09:17:47.960Z,75.90
2023-01-07T09:20:16.365Z,76.07
2023-01-07T09:22:44.102Z,76.13
2023-01-07T09:25:11.853Z,76.30
2023-01-07T09:27:40.859Z,76.44
2023-01-07T09:30:09.606Z,76.52
2023-01-07T09:32:37.427Z,76.58
2023-01-07T09:35:06.859Z,76.68
2023-01-07T09:37:34.529Z,76.81
2023-01-07T09:40:05.214Z,76.74
2023-01-07T09:45:43.313Z,76.92
2023-01-07T09:48:25.529Z,76.94
2023-01-07T09:51:01.153Z,76.92
2023-01-07T09:53:54.484Z,76.84
2023-01-07T09:56:29.398Z,76.58
2023-01-07T09:59:00.235Z,76.25
2023-01-07T10:01:57.133Z,76.22
2023-01-07T10:04:42.287Z,76.18
2023-01-07T10:07:35.507Z,76.21
2023-01-07T10:10:30.037Z,76.14
2023-01-07T10:13:22.968Z,75.86
2023-01-07T10:16:23.648Z,75.64
2023-01-07T10:19:04.584Z,75.51
2023-01-07T10:21:43.302Z,75.34
2023-01-07T10:24:22.363Z,75.33
2023-01-07T10:26:55.040Z,75.05
2023-01-07T10:29:31.348Z,74.86
2023-01-07T10:32:07.514Z,74.82
2023-01-07T10:34:40.605Z,74.87
2023-01-07T10:37:16.415Z,74.79
2023-01-07T10:40:13.704Z,74.94
2023-01-07T10:43:12.539Z,74.98
2023-01-07T10:45:51.634Z,74.57
2023-01-07T10:48:33.567Z,74.77
2023-01-07T10:51:15.006Z,75.03
2023-01-07T10:54:22.827Z,74.95
2023-01-07T10:56:56.715Z,74.76
2023-01-07T10:59:25.542Z,74.64
2023-01-07T11:01:57.068Z,74.76
2023-01-07T11:04:26.093Z,74.64
2023-01-07T11:07:29.420Z,74.21
2023-01-07T11:10:01.908Z,73.93
2023-01-07T11:12:46.584Z,74.45
2023-01-07T11:15:36.500Z,74.58
2023-01-07T11:18:15.061Z,74.51
2023-01-07T11:20:53.407Z,74.61
2023-01-07T11:23:42.753Z,74.58
2023-01-07T11:26:30.043Z,74.58
2023-01-07T11:29:17.560Z,74.17
2023-01-07T11:31:55.676Z,74.56
2023-01-07T11:34:34.246Z,74.52
2023-01-07T11:37:03.599Z,74.50
2023-01-07T11:39:36.820Z,74.38
2023-01-07T11:42:36.582Z,74.43
2023-01-07T11:45:23.792Z,74.51
2023-01-07T11:48:29.690Z,74.56
2023-01-07T11:51:04.584Z,74.28
2023-01-07T11:53:44.755Z,73.93
2023-01-07T11:56:22.914Z,73.81
2023-01-07T11:59:17.492Z,73.45
2023-01-07T12:01:53.353Z,73.30
2023-01-07T12:04:30.926Z,73.02
2023-01-07T12:07:06.293Z,72.71
2023-01-07T12:09:38.158Z,72.79
2023-01-07T12:12:33.476Z,72.96
2023-01-07T12:15:18.529Z,72.95
2023-01-07T12:17:50.756Z,73.17
2023-01-07T12:20:50.271Z,73.24
2023-01-07T12:23:37.929Z,73.18
2023-01-07T12:26:16.061Z,73.17
2023-01-07T12:29:11.803Z,73.30
2023-01-07T12:31:56.602Z,73.21
2023-01-07T12:34:55.553Z,73.32
2023-01-07T12:37:38.115Z,73.42
2023-01-07T12:40:20.446Z,73.48
2023-01-07T12:43:05.346Z,73.58
2023-01-07T12:45:56.850Z,73.59
2023-01-07T12:48:44.751Z,73.60
2023-01-07T12:51:29.876Z,73.55
2023-01-07T12:54:17.635Z,73.28
2023-01-07T12:56:53.690Z,73.32
2023-01-07T12:59:46.719Z,73.66
2023-01-07T13:02:37.526Z,73.78
2023-01-07T13:05:21.880Z,73.68
2023-01-07T13:08:03.386Z,73.90
2023-01-07T13:10:41.863Z,73.85
2023-01-07T13:13:24.411Z,74.09
2023-01-07T13:15:53.316Z,74.31
2023-01-07T13:18:21.225Z,74.60
2023-01-07T13:21:08.284Z,74.54
2023-01-07T13:24:09.282Z,74.55
2023-01-07T13:26:57.319Z,74.52
2023-01-07T13:30:02.261Z,74.71
2023-01-07T13:32:47.457Z,74.68
2023-01-07T13:35:43.323Z,74.67
2023-01-07T13:38:51.789Z,74.38
2023-01-07T13:41:51.262Z,73.80
2023-01-07T13:45:03.822Z,73.66
2023-01-07T13:47:53.387Z,73.60
2023-01-07T13:50:29.702Z,73.55
2023-01-07T13:53:07.368Z,73.40
2023-01-07T13:55:40.020Z,73.46
2023-01-07T13:58:37.084Z,73.21
2023-01-07T14:01:12.007Z,73.10
2023-01-07T14:03:49.610Z,73.20
2023-01-07T14:06:29.413Z,73.56
2023-01-07T14:09:10.717Z,73.49
2023-01-07T14:12:03.755Z,73.47
2023-01-07T14:14:57.863Z,73.46
2023-01-07T14:17:44.541Z,73.63
2023-01-07T14:20:46.728Z,73.97
2023-01-07T14:23:25.731Z,73.97
2023-01-07T14:26:31.116Z,73.93
2023-01-07T14:29:19.400Z,74.10
2023-01-07T14:31:47.159Z,74.46
2023-01-07T14:34:24.269Z,74.49
2023-01-07T14:37:14.672Z,74.41
2023-01-07T14:39:45.107Z,74.49
2023-01-07T14:42:26.203Z,74.50
2023-01-07T14:44:53.827Z,74.67
2023-01-07T14:47:51.984Z,74.60
2023-01-07T14:50:37.321Z,74.72
2023-01-07T14:53:22.081Z,75.00
2023-01-07T14:56:12.538Z,75.21
2023-01-07T14:59:02.133Z,75.29
2023-01-07T15:02:10.594Z,75.46
2023-01-07T15:05:11.029Z,75.80
2023-01-07T15:07:40.684Z,76.01
2023-01-07T15:10:49.157Z,76.02
2023-01-07T15:13:37.659Z,76.03
2023-01-07T15:16:09.903Z,75.99
2023-01-07T15:18:50.959Z,75.94
2023-01-07T15:22:02.342Z,75.92
2023-01-07T15:24:56.499Z,75.74
2023-01-07T15:27:50.862Z,75.76
2023-01-07T15:31:02.528Z,75.89
2023-01-07T15:34:01.873Z,76.06
2023-01-07T15:36:31.461Z,76.21
2023-01-07T15:39:02.745Z,76.25
2023-01-07T15:41:35.894Z,76.39
2023-01-07T15:44:17.956Z,76.56
2023-01-07T15:46:45.536Z,76.67
2023-01-07T15:49:23.279Z,76.79
2023-01-07T15:51:57.435Z,76.81
2023-01-07T15:54:38.915Z,76.89
2023-01-07T15:57:31.372Z,77.09
2023-01-07T15:59:59.019Z,77.14
2023-01-07T16:02:37.456Z,77.44
2023-01-07T16:05:06.528Z,77.72
2023-01-07T16:07:52.478Z,77.75
2023-01-07T16:10:32.634Z,77.92
2023-01-07T16:13:04.484Z,78.05
2023-01-07T16:15:36.496Z,78.05
2023-01-07T16:18:16.057Z,78.40
2023-01-07T16:20:58.305Z,78.22
2023-01-07T16:23:33.690Z,78.20
2023-01-07T16:26:06.091Z,78.37
2023-01-07T16:28:54.096Z,78.57
2023-01-07T16:31:25.813Z,78.57
2023-01-07T16:33:57.282Z,78.69
2023-01-07T16:36:36.056Z,78.74
2023-01-07T16:39:08.960Z,78.67
2023-01-07T16:41:37.040Z,78.67
2023-01-07T16:44:04.910Z,78.83
2023-01-07T16:46:37.890Z,78.91
2023-01-07T16:49:28.422Z,78.78
2023-01-07T16:52:15.058Z,78.35
2023-01-07T16:54:44.034Z,78.18
2023-01-07T16:57:17.201Z,77.99
2023-01-07T16:59:54.946Z,77.92
2023-01-07T17:02:58.915Z,77.94
2023-01-07T17:05:32.890Z,77.90
2023-01-07T17:08:05.026Z,77.97
2023-01-07T17:10:36.251Z,77.88
2023-01-07T17:13:17.170Z,77.84
2023-01-07T17:15:44.458Z,77.84
2023-01-07T17:18:20.029Z,77.85
2023-01-07T17:20:51.787Z,77.92
2023-01-07T17:23:31.934Z,77.95
2023-01-07T17:26:12.806Z,77.99
2023-01-07T17:28:48.406Z,77.91
2023-01-07T17:31:16.430Z,78.06
2023-01-07T17:33:44.468Z,78.15
2023-01-07T17:36:21.899Z,78.25
2023-01-07T17:38:49.770Z,78.25
2023-01-07T17:41:41.798Z,78.30
2023-01-07T17:44:12.408Z,78.34
2023-01-07T17:46:41.303Z,78.48
2023-01-07T17:49:11.524Z,78.37
2023-01-07T17:51:42.403Z,78.22
2023-01-07T17:54:20.065Z,78.33
2023-01-07T17:56:48.106Z,78.50
2023-01-07T17:59:18.875Z,78.55
2023-01-07T18:01:46.966Z,78.61
2023-01-07T18:04:14.687Z,78.69
2023-01-07T18:06:43.142Z,78.79
2023-01-07T18:09:12.928Z,78.63
2023-01-07T18:12:02.483Z,78.58
2023-01-07T18:14:31.935Z,78.62
2023-01-07T18:16:59.760Z,78.53
2023-01-07T18:19:27.492Z,78.34
2023-01-07T18:21:55.002Z,78.20
2023-01-07T18:24:22.602Z,78.17
2023-01-07T18:26:50.303Z,78.15
2023-01-07T18:29:17.839Z,78.12
2023-01-07T18:31:45.668Z,78.15
2023-01-07T18:34:15.023Z,78.11
2023-01-07T18:36:42.589Z,78.15
2023-01-07T18:39:17.536Z,78.14
2023-01-07T18:41:45.135Z,78.21
2023-01-07T18:44:12.578Z,78.26
2023-01-07T18:46:40.373Z,78.37
2023-01-07T18:49:09.399Z,78.38
2023-01-07T18:51:37.757Z,78.45
2023-01-07T18:54:05.889Z,78.55
2023-01-07T18:56:33.433Z,78.66
2023-01-07T18:59:00.899Z,78.78
2023-01-07T19:01:31.672Z,78.86
2023-01-07T19:03:59.631Z,78.96
2023-01-07T19:06:27.455Z,79.08
2023-01-07T19:08:55.965Z,79.16
2023-01-07T19:11:23.647Z,79.23
2023-01-07T19:13:51.085Z,79.26
2023-01-07T19:16:19.196Z,79.34
2023-01-07T19:18:46.994Z,79.36
2023-01-07T19:21:14.740Z,79.43
2023-01-07T19:23:42.432Z,79.49
2023-01-07T19:26:11.489Z,79.56
2023-01-07T19:28:39.080Z,79.45
2023-01-07T19:31:09.150Z,79.32
2023-01-07T19:33:37.521Z,79.32
2023-01-07T19:36:13.301Z,79.24
2023-01-07T19:38:44.088Z,79.24
2023-01-07T19:41:18.769Z,79.18
2023-01-07T19:43:47.759Z,78.95
2023-01-07T19:46:16.000Z,78.79
2023-01-07T19:48:48.910Z,78.70
2023-01-07T19:51:16.757Z,78.65
2023-01-07T19:53:46.693Z,78.49
2023-01-07T19:56:14.233Z,78.40
2023-01-07T19:58:42.162Z,78.35
2023-01-07T20:01:17.261Z,78.36
2023-01-07T20:03:45.343Z,78.41
2023-01-07T20:06:16.211Z,78.48
2023-01-07T20:08:44.755Z,78.67
2023-01-07T20:11:13.560Z,78.58
2023-01-07T20:13:43.042Z,78.47
2023-01-07T20:16:15.035Z,78.53
2023-01-07T20:18:46.127Z,78.60
2023-01-07T20:21:16.526Z,78.69
2023-01-07T20:23:44.599Z,78.71
2023-01-07T20:26:16.559Z,78.74
2023-01-07T20:28:44.894Z,78.84
2023-01-07T20:31:15.226Z,78.90
2023-01-07T20:33:44.889Z,78.98
2023-01-07T20:36:18.837Z,79.10
2023-01-07T20:38:47.382Z,79.05
2023-01-07T20:41:19.715Z,79.05
2023-01-07T20:43:57.980Z,79.18
2023-01-07T20:46:27.778Z,79.19
2023-01-07T20:48:56.711Z,79.27
2023-01-07T20:51:24.479Z,79.18
2023-01-07T20:53:52.514Z,79.32
2023-01-07T20:56:22.759Z,79.36
2023-01-07T20:58:51.176Z,79.35
2023-01-07T21:01:21.240Z,79.25
2023-01-07T21:03:49.588Z,79.07
2023-01-07T21:06:19.143Z,79.01
2023-01-07T21:08:48.103Z,79.04
2023-01-07T21:11:20.221Z,78.95
2023-01-07T21:13:49.245Z,78.90
2023-01-07T21:16:17.629Z,78.88
2023-01-07T21:18:45.232Z,78.69
2023-01-07T21:21:23.464Z,78.70
2023-01-07T21:23:52.981Z,78.66
2023-01-07T21:26:23.336Z,78.65
2023-01-07T21:28:55.296Z,78.63
2023-01-07T21:31:24.165Z,78.72
2023-01-07T21:33:55.757Z,78.63
2023-01-07T21:36:25.126Z,78.62
2023-01-07T21:38:56.881Z,78.72
2023-01-07T21:41:26.000Z,78.69
2023-01-07T21:43:54.130Z,78.77
2023-01-07T21:46:22.083Z,78.80
2023-01-07T21:48:51.243Z,78.83
2023-01-07T21:51:25.564Z,78.80
2023-01-07T21:53:55.931Z,78.94
2023-01-07T21:56:28.129Z,79.04
2023-01-07T21:58:55.446Z,79.12
2023-01-07T22:01:25.023Z,79.25
2023-01-07T22:03:53.057Z,79.38
2023-01-07T22:06:27.593Z,79.38
2023-01-07T22:08:58.600Z,79.37
2023-01-07T22:11:26.740Z,79.37
2023-01-07T22:13:57.556Z,79.48
2023-01-07T22:16:28.453Z,79.45
2023-01-07T22:18:56.962Z,79.51
2023-01-07T22:21:24.802Z,79.51
2023-01-07T22:23:52.223Z,79.63
2023-01-07T22:26:20.757Z,79.80
2023-01-07T22:28:57.932Z,79.85
2023-01-07T22:31:32.375Z,79.57
2023-01-07T22:34:00.188Z,79.26
2023-01-07T22:36:33.258Z,79.30
2023-01-07T22:39:09.758Z,79.22
2023-01-07T22:41:37.881Z,79.07
2023-01-07T22:44:10.320Z,79.01
2023-01-07T22:46:39.517Z,78.87
2023-01-07T22:49:07.151Z,78.81
2023-01-07T22:51:39.540Z,78.83
2023-01-07T22:54:08.293Z,78.81
2023-01-07T22:56:36.117Z,78.86
2023-01-07T22:59:03.825Z,78.85
2023-01-07T23:01:31.548Z,78.83
2023-01-07T23:03:59.418Z,79.01
2023-01-07T23:06:27.324Z,79.11
2023-01-07T23:08:54.929Z,79.12
2023-01-07T23:11:41.030Z,79.04
2023-01-07T23:14:08.927Z,79.16
2023-01-07T23:16:37.327Z,79.31
2023-01-07T23:19:05.467Z,79.39
2023-01-07T23:21:33.865Z,79.45
2023-01-07T23:24:01.425Z,79.51
2023-01-07T23:26:28.899Z,79.51
2023-01-07T23:28:56.807Z,79.53
2023-01-07T23:31:24.689Z,79.60
2023-01-07T23:33:52.325Z,79.69
2023-01-07T23:36:19.674Z,79.76
2023-01-07T23:38:47.812Z,79.85
2023-01-07T23:41:15.702Z,79.94
2023-01-07T23:43:43.309Z,79.87
2023-01-07T23:46:11.695Z,79.93
2023-01-07T23:48:39.530Z,79.92
2023-01-07T23:51:13.963Z,79.83
2023-01-07T23:53:42.143Z,79.73
2023-01-07T23:56:09.717Z,79.69
2023-01-07T23:58:38.274Z,79.65
